Time;durP1;ratioP1;P1;durP2;ratioP2;P2;SDS_P1;SDS_P2;PMS_P1;PMS_P2;Temp;Humidity;BMP_temperature;BMP_pressure;BME280_temperature;BME280_humidity;BME280_pressure;Samples;Min_cycle;Max_cycle;Signal;HPM_P1;HPM_P2
2022/05/03 00:00:10;;;;;;;15.93;2.85;;;;;;;7.36;100.00;101973.38;5070057;28;20052;-81
2022/05/03 00:02:53;;;;;;;12.70;3.28;;;;;;;7.50;100.00;101981.13;5084743;28;20045;-81
2022/05/03 00:05:36;;;;;;;13.13;2.88;;;;;;;7.29;100.00;101958.66;5062700;28;20135;-81
2022/05/03 00:08:18;;;;;;;11.55;2.65;;;;;;;7.31;100.00;101966.47;5070808;28;20052;-81
2022/05/03 00:10:55;;;;;;;15.85;3.10;;;;;;;7.46;100.00;101978.56;5070407;28;20401;-81
2022/05/03 00:13:28;;;;;;;13.90;2.92;;;;;;;7.28;100.00;101961.25;5070560;28;20082;-80
2022/05/03 00:15:58;;;;;;;18.85;3.90;;;;;;;7.04;100.00;101971.75;5070997;28;20478;-80
2022/05/03 00:18:25;;;;;;;12.68;2.72;;;;;;;7.08;100.00;101959.59;5071863;28;20052;-81
2022/05/03 00:20:52;;;;;;;12.77;3.30;;;;;;;6.96;100.00;101954.47;5070581;28;20048;-81
2022/05/03 00:23:22;;;;;;;13.60;2.95;;;;;;;7.20;100.00;101976.94;5071130;28;20147;-81
2022/05/03 00:25:51;;;;;;;12.23;2.70;;;;;;;6.92;100.00;101963.13;5070570;28;20055;-81
2022/05/03 00:28:19;;;;;;;14.07;3.22;;;;;;;6.98;100.00;101968.34;5070448;28;20055;-81
2022/05/03 00:30:48;;;;;;;7.15;2.42;;;;;;;6.96;100.00;101957.06;5069487;28;20378;-80
2022/05/03 00:33:16;;;;;;;10.93;2.55;;;;;;;6.86;100.00;101953.59;5072197;28;20040;-81
2022/05/03 00:35:43;;;;;;;11.32;3.35;;;;;;;6.80;100.00;101956.25;5071594;28;20070;-81
2022/05/03 00:38:10;;;;;;;9.70;2.53;;;;;;;6.76;100.00;101957.09;5072659;28;20049;-80
2022/05/03 00:40:44;;;;;;;12.15;2.85;;;;;;;6.76;100.00;101962.31;5071200;28;20139;-81
2022/05/03 00:43:34;;;;;;;10.40;2.75;;;;;;;6.83;100.00;101961.41;5070608;28;20131;-81
2022/05/03 00:46:05;;;;;;;11.93;3.05;;;;;;;6.77;100.00;101953.63;5070322;28;20470;-81
2022/05/03 00:48:54;;;;;;;10.30;3.10;;;;;;;6.65;100.00;101952.78;5070188;28;20110;-81
2022/05/03 00:51:37;;;;;;;9.27;2.85;;;;;;;6.56;100.00;101942.38;5069753;28;20044;-81
2022/05/03 00:54:42;;;;;;;13.48;3.60;;;;;;;6.43;100.00;101956.28;5071062;28;20052;-81
2022/05/03 00:57:24;;;;;;;9.93;2.40;;;;;;;6.29;100.00;101961.50;5058510;28;20049;-81
2022/05/03 01:00:13;;;;;;;14.38;2.92;;;;;;;6.63;100.00;101957.13;5062746;28;20074;-81
2022/05/03 01:02:58;;;;;;;13.10;2.90;;;;;;;6.77;100.00;101966.66;5070728;28;20569;-81
2022/05/03 01:05:34;;;;;;;11.95;2.63;;;;;;;6.93;100.00;101964.88;5070994;28;20431;-81
2022/05/03 01:08:31;;;;;;;10.10;2.95;;;;;;;7.12;100.00;101950.03;5070089;28;20126;-81
2022/05/03 01:11:04;;;;;;;12.82;2.30;;;;;;;7.12;100.00;101966.56;5069062;28;20075;-81
2022/05/03 01:13:36;;;;;;;9.10;2.53;;;;;;;6.93;100.00;101960.53;5070598;28;20045;-81
2022/05/03 01:16:17;;;;;;;12.48;2.72;;;;;;;6.84;100.00;101953.59;5070194;28;20045;-81
2022/05/03 01:18:56;;;;;;;10.68;2.60;;;;;;;6.69;100.00;101932.81;5070486;28;20458;-81
2022/05/03 01:21:37;;;;;;;11.63;2.45;;;;;;;6.64;100.00;101942.41;5069233;28;20049;-80
2022/05/03 01:24:30;;;;;;;8.38;3.08;;;;;;;6.71;100.00;101927.59;5051658;28;20651;-80
2022/05/03 01:27:26;;;;;;;11.68;3.10;;;;;;;6.73;100.00;101937.16;5051271;28;20403;-81
2022/05/03 01:29:57;;;;;;;12.02;3.15;;;;;;;6.45;100.00;101926.78;5045707;28;20044;-81
2022/05/03 01:32:25;;;;;;;11.20;3.05;;;;;;;6.52;100.00;101932.84;5064135;28;20041;-81
2022/05/03 01:34:52;;;;;;;12.73;3.08;;;;;;;6.63;100.00;101938.03;5069858;28;20045;-81
2022/05/03 01:37:37;;;;;;;12.50;3.20;;;;;;;6.89;100.00;101950.13;5069877;28;20049;-81
2022/05/03 01:40:14;;;;;;;8.98;2.60;;;;;;;7.02;100.00;101937.06;5055053;28;20063;-81
2022/05/03 01:42:50;;;;;;;10.05;2.70;;;;;;;7.17;100.00;101946.56;5069528;28;20049;-81
2022/05/03 01:45:27;;;;;;;12.80;2.50;;;;;;;7.34;100.00;101932.59;5069338;28;20044;-81
2022/05/03 01:51:43;;;;;;;10.88;2.60;;;;;;;7.67;100.00;101939.34;5052785;28;20044;-82
2022/05/03 01:54:47;;;;;;;10.55;2.40;;;;;;;7.75;100.00;101937.53;5067047;28;20053;-81
2022/05/03 01:57:30;;;;;;;11.63;2.70;;;;;;;7.79;100.00;101941.88;5064535;28;20151;-81
2022/05/03 02:00:01;;;;;;;17.08;2.83;;;;;;;7.81;100.00;101934.06;5070548;28;20052;-80
2022/05/03 02:02:50;;;;;;;12.48;3.22;;;;;;;7.70;100.00;101928.91;5072976;28;20123;-81
2022/05/03 02:05:28;;;;;;;13.00;3.13;;;;;;;7.76;100.00;101926.25;5067300;28;20135;-81
2022/05/03 02:07:57;;;;;;;13.15;2.90;;;;;;;7.31;100.00;101920.47;5074920;28;20509;-81
2022/05/03 02:10:53;;;;;;;16.38;3.53;;;;;;;7.21;100.00;101918.75;5073044;28;20157;-81
2022/05/03 02:16:33;;;;;;;15.40;3.13;;;;;;;7.02;100.00;101899.75;5060539;28;20052;-80
2022/05/03 02:19:10;;;;;;;10.18;3.13;;;;;;;7.08;100.00;101917.06;5064634;28;20056;-81
2022/05/03 02:22:21;;;;;;;13.32;3.38;;;;;;;7.44;100.00;101905.63;5072136;28;20058;-81
2022/05/03 02:25:01;;;;;;;13.38;3.08;;;;;;;7.65;100.00;101906.34;5058061;28;20055;-81
2022/05/03 02:27:31;;;;;;;9.80;2.95;;;;;;;7.68;100.00;101888.06;5073205;28;20130;-81
2022/05/03 02:30:03;;;;;;;12.98;2.97;;;;;;;7.69;100.00;101898.50;5071826;28;20375;-81
2022/05/03 02:32:49;;;;;;;12.00;2.95;;;;;;;7.91;100.00;101903.53;5072692;28;20417;-81
2022/05/03 02:35:23;;;;;;;12.18;2.85;;;;;;;7.97;100.00;101893.94;5072996;28;20052;-81
2022/05/03 02:37:56;;;;;;;14.60;2.92;;;;;;;7.80;100.00;101865.38;5074089;28;20044;-81
2022/05/03 02:40:30;;;;;;;8.95;2.55;;;;;;;8.02;100.00;101880.88;5072277;28;20128;-81
2022/05/03 02:42:57;;;;;;;11.57;2.58;;;;;;;7.94;100.00;101883.53;5073357;28;20408;-81
2022/05/03 02:45:25;;;;;;;11.65;2.60;;;;;;;7.92;100.00;101860.97;5073000;28;20048;-81
2022/05/03 02:47:59;;;;;;;11.45;2.47;;;;;;;8.16;100.00;101879.00;5072256;28;20052;-82
2022/05/03 02:50:53;;;;;;;13.93;2.50;;;;;;;7.95;100.00;101876.56;5071638;28;20048;-79
2022/05/03 02:53:51;;;;;;;16.88;3.75;;;;;;;8.04;100.00;101873.91;5052856;28;20088;-82
2022/05/03 02:56:25;;;;;;;13.40;2.88;;;;;;;7.92;100.00;101871.38;5061705;28;20079;-79
2022/05/03 02:58:54;;;;;;;24.50;5.82;;;;;;;8.14;100.00;101867.72;5071822;28;20055;-82
2022/05/03 03:01:48;;;;;;;9.38;2.53;;;;;;;8.15;100.00;101869.44;5072375;28;20060;-82
2022/05/03 03:04:32;;;;;;;13.35;3.45;;;;;;;8.13;100.00;101859.91;5073268;28;20079;-82
2022/05/03 03:06:59;;;;;;;12.07;5.18;;;;;;;7.93;100.00;101844.41;5072765;28;20051;-80
2022/05/03 03:09:31;;;;;;;13.98;2.55;;;;;;;8.03;100.00;101825.19;5073418;28;20630;-80
2022/05/03 03:12:22;;;;;;;11.75;3.33;;;;;;;8.31;100.00;101870.16;5071381;28;20048;-80
2022/05/03 03:15:00;;;;;;;7.40;2.33;;;;;;;8.15;100.00;101858.13;5072572;28;20055;-81
2022/05/03 03:17:29;;;;;;;12.80;3.65;;;;;;;8.09;100.00;101855.56;5072091;28;20053;-80
2022/05/03 03:19:59;;;;;;;13.38;2.90;;;;;;;8.01;100.00;101862.63;5072321;28;20718;-79
2022/05/03 03:22:31;;;;;;;17.35;3.83;;;;;;;7.86;100.00;101850.56;5052887;28;20045;-80
2022/05/03 03:24:59;;;;;;;11.35;3.08;;;;;;;7.90;100.00;101844.47;5060546;28;20044;-79
2022/05/03 03:27:27;;;;;;;12.13;3.00;;;;;;;8.13;100.00;101852.06;5072085;28;20044;-79
2022/05/03 03:29:57;;;;;;;13.05;3.13;;;;;;;8.31;100.00;101837.97;5072661;28;20049;-80
2022/05/03 03:32:25;;;;;;;10.93;2.15;;;;;;;8.49;100.00;101852.59;5071094;28;20052;-80
2022/05/03 03:34:57;;;;;;;8.27;2.45;;;;;;;8.38;100.00;101839.63;5071810;28;20053;-80
2022/05/03 03:37:35;;;;;;;12.07;3.05;;;;;;;8.49;100.00;101837.78;5072799;28;20414;-79
2022/05/03 03:40:04;;;;;;;13.00;2.97;;;;;;;8.36;100.00;101824.00;5070645;28;20653;-81
2022/05/03 03:42:31;;;;;;;13.18;3.10;;;;;;;8.29;100.00;101838.00;5071573;28;20045;-81
2022/05/03 03:45:06;;;;;;;11.40;2.95;;;;;;;8.26;100.00;101838.00;5070978;28;20056;-81
2022/05/03 03:47:37;;;;;;;16.58;3.03;;;;;;;8.36;100.00;101831.81;5054360;28;20063;-81
2022/05/03 03:50:05;;;;;;;11.27;3.15;;;;;;;8.43;100.00;101847.44;5052079;28;20421;-81
2022/05/03 03:52:34;;;;;;;9.70;2.90;;;;;;;8.22;100.00;101835.47;5055095;28;20047;-81
2022/05/03 03:55:02;;;;;;;14.10;2.92;;;;;;;8.22;100.00;101828.50;5072860;28;20536;-81
2022/05/03 03:57:35;;;;;;;12.02;3.25;;;;;;;7.94;100.00;101830.50;5063275;28;20051;-81
2022/05/03 04:00:04;;;;;;;19.63;3.78;;;;;;;7.90;100.00;101841.84;5070452;28;20479;-81
2022/05/03 04:02:32;;;;;;;12.88;3.17;;;;;;;7.80;100.00;101822.81;5071127;28;20054;-81
2022/05/03 04:05:01;;;;;;;12.45;3.20;;;;;;;7.63;100.00;101819.47;5071284;28;20525;-81
2022/05/03 04:07:28;;;;;;;13.30;3.28;;;;;;;7.90;100.00;101826.22;5070560;28;20127;-81
2022/05/03 04:09:55;;;;;;;12.05;2.72;;;;;;;8.04;100.00;101831.28;5071108;28;20052;-81
2022/05/03 04:12:22;;;;;;;12.43;3.72;;;;;;;7.84;100.00;101824.50;5072903;28;20386;-81
2022/05/03 04:14:49;;;;;;;12.10;2.88;;;;;;;8.09;100.00;101837.31;5070439;28;20048;-81
2022/05/03 04:17:15;;;;;;;11.75;3.53;;;;;;;8.30;100.00;101828.41;5064254;28;20044;-81
2022/05/03 04:19:43;;;;;;;12.82;2.63;;;;;;;8.43;100.00;101827.44;5064824;28;20052;-80
2022/05/03 04:22:31;;;;;;;16.08;3.10;;;;;;;8.62;100.00;101820.25;5069445;28;20050;-80
2022/05/03 04:24:59;;;;;;;12.25;2.85;;;;;;;8.66;100.00;101839.38;5051041;28;20045;-80
2022/05/03 04:27:29;;;;;;;12.40;3.33;;;;;;;8.57;100.00;101832.50;5060979;28;20052;-80
2022/05/03 04:29:56;;;;;;;11.23;2.60;;;;;;;8.54;100.00;101809.03;5070248;28;20040;-80
2022/05/03 04:32:26;;;;;;;13.50;2.80;;;;;;;8.64;100.00;101836.78;5072329;28;20052;-80
2022/05/03 04:34:53;;;;;;;11.27;2.70;;;;;;;8.52;100.00;101827.31;5071518;28;20486;-79
2022/05/03 04:37:20;;;;;;;10.90;2.47;;;;;;;8.53;100.00;101825.56;5070619;28;20522;-79
2022/05/03 04:39:47;;;;;;;11.75;3.03;;;;;;;8.39;100.00;101814.41;5070787;28;20057;-80
2022/05/03 04:42:14;;;;;;;11.73;2.72;;;;;;;8.74;100.00;101838.38;5069577;28;20059;-80
2022/05/03 04:44:41;;;;;;;10.82;2.97;;;;;;;8.70;100.00;101831.47;5069752;28;20047;-81
2022/05/03 04:47:08;;;;;;;18.27;3.13;;;;;;;8.60;100.00;101819.41;5064835;28;20045;-81
2022/05/03 04:49:35;;;;;;;11.50;2.15;;;;;;;8.92;100.00;101792.88;5062638;28;20475;-81
2022/05/03 04:52:02;;;;;;;16.75;3.55;;;;;;;8.93;100.00;101818.09;5070983;28;20058;-81
2022/05/03 04:54:29;;;;;;;8.13;2.45;;;;;;;9.25;100.00;101819.41;5070577;28;20054;-80
2022/05/03 04:57:04;;;;;;;15.32;3.03;;;;;;;9.12;100.00;101823.09;5070514;28;20049;-80
2022/05/03 04:59:30;;;;;;;9.60;2.65;;;;;;;9.12;100.00;101813.50;5064891;28;20475;-80
2022/05/03 05:01:57;;;;;;;14.15;2.67;;;;;;;8.95;100.00;101827.69;5056915;28;20045;-81
2022/05/03 05:04:24;;;;;;;14.15;2.72;;;;;;;8.88;100.00;101813.84;5061072;28;20135;-81
2022/05/03 05:06:51;;;;;;;16.85;3.10;;;;;;;8.62;100.00;101816.78;5067385;28;20120;-81
2022/05/03 05:09:20;;;;;;;11.40;2.85;;;;;;;8.84;100.00;101831.28;5061251;28;20052;-81
2022/05/03 05:11:48;;;;;;;12.00;3.00;;;;;;;8.75;100.00;101823.59;5062354;28;20143;-81
2022/05/03 05:14:16;;;;;;;16.23;3.60;;;;;;;8.67;100.00;101826.28;5061193;28;20123;-81
2022/05/03 05:16:44;;;;;;;15.23;3.28;;;;;;;8.80;100.00;101820.91;5060476;28;20054;-81
2022/05/03 05:19:11;;;;;;;13.77;3.58;;;;;;;8.72;100.00;101821.84;5057720;28;20044;-80
2022/05/03 05:21:38;;;;;;;13.75;3.40;;;;;;;8.86;100.00;101819.06;5065487;28;20088;-80
2022/05/03 05:24:10;;;;;;;21.00;5.38;;;;;;;8.79;100.00;101820.03;5063606;28;20045;-80
2022/05/03 05:26:36;;;;;;;16.10;3.88;;;;;;;8.59;100.00;101827.25;5060574;28;20053;-81
2022/05/03 05:29:03;;;;;;;13.30;3.97;;;;;;;8.39;100.00;101791.75;5061912;28;20066;-81
2022/05/03 05:31:30;;;;;;;14.40;4.00;;;;;;;8.74;100.00;101827.91;5057640;28;20061;-81
2022/05/03 05:33:57;;;;;;;13.05;3.08;;;;;;;8.81;100.00;101818.25;5058864;28;20068;-80
2022/05/03 05:36:23;;;;;;;13.95;2.58;;;;;;;8.83;100.00;101816.50;5066711;28;20390;-81
2022/05/03 05:38:50;;;;;;;12.65;2.92;;;;;;;8.98;100.00;101815.44;5067098;28;20060;-80
2022/05/03 05:41:17;;;;;;;15.25;3.42;;;;;;;8.82;100.00;101821.72;5061894;28;20048;-80
2022/05/03 05:43:44;;;;;;;17.67;3.92;;;;;;;8.51;100.00;101820.38;5063426;28;20052;-79
2022/05/03 05:46:10;;;;;;;10.50;2.65;;;;;;;8.66;100.00;101818.47;5065174;28;20057;-80
2022/05/03 05:48:39;;;;;;;16.35;3.45;;;;;;;8.30;100.00;101771.84;5067800;28;20482;-80
2022/05/03 05:51:06;;;;;;;14.65;3.83;;;;;;;8.43;100.00;101777.84;5063306;28;20514;-81
2022/05/03 05:53:33;;;;;;;12.32;3.88;;;;;;;8.82;100.00;101822.63;5069244;28;20370;-80
2022/05/03 05:56:02;;;;;;;15.10;3.17;;;;;;;8.80;100.00;101800.00;5067626;28;20053;-80
2022/05/03 05:58:29;;;;;;;12.68;3.42;;;;;;;8.27;100.00;101761.47;5066038;28;20058;-81
2022/05/03 06:00:56;;;;;;;16.75;3.70;;;;;;;8.77;100.00;101810.50;5064505;28;20563;-82
2022/05/03 06:03:24;;;;;;;15.85;3.50;;;;;;;8.64;100.00;101765.41;5067238;28;20055;-82
2022/05/03 06:05:51;;;;;;;10.77;2.80;;;;;;;8.80;100.00;101776.50;5065350;28;20066;-82
2022/05/03 06:08:18;;;;;;;11.02;3.03;;;;;;;8.60;100.00;101761.97;5068657;28;20060;-82
2022/05/03 06:10:45;;;;;;;12.98;3.10;;;;;;;8.64;100.00;101765.41;5070689;28;20218;-81
2022/05/03 06:13:13;;;;;;;8.50;2.47;;;;;;;9.26;100.00;101765.38;5068116;28;20047;-82
2022/05/03 06:15:40;;;;;;;13.38;3.28;;;;;;;9.25;100.00;101788.03;5065342;28;20045;-82
2022/05/03 06:18:10;;;;;;;11.73;3.25;;;;;;;9.48;100.00;101764.16;5062944;28;20055;-82
2022/05/03 06:20:37;;;;;;;12.77;2.95;;;;;;;9.46;100.00;101765.06;5061941;28;20411;-83
2022/05/03 06:23:11;;;;;;;15.57;3.25;;;;;;;8.99;100.00;101788.41;5067860;28;20452;-83
2022/05/03 06:25:39;;;;;;;17.42;3.55;;;;;;;9.17;100.00;101783.81;5066265;28;20048;-82
2022/05/03 06:28:06;;;;;;;16.90;2.88;;;;;;;9.76;100.00;101786.38;5067779;28;20496;-82
2022/05/03 06:30:33;;;;;;;14.63;3.58;;;;;;;9.52;100.00;101770.19;5059533;28;20048;-82
2022/05/03 06:33:00;;;;;;;20.20;4.82;;;;;;;9.77;100.00;101794.16;5066729;28;20044;-82
2022/05/03 06:35:30;;;;;;;17.20;2.75;;;;;;;9.80;100.00;101804.59;5074568;28;20915;-83
2022/05/03 06:37:57;;;;;;;14.10;3.55;;;;;;;9.69;100.00;101780.38;5066354;28;20045;-83
2022/05/03 06:40:27;;;;;;;12.30;3.20;;;;;;;10.10;100.00;101770.91;5071469;28;20048;-83
2022/05/03 06:42:57;;;;;;;13.18;3.35;;;;;;;9.85;100.00;101770.50;5071958;28;20055;-82
2022/05/03 06:45:26;;;;;;;17.65;4.40;;;;;;;10.20;100.00;101782.06;5073250;28;20139;-84
2022/05/03 06:47:53;;;;;;;15.57;3.55;;;;;;;10.17;100.00;101764.66;5073482;28;20048;-83
2022/05/03 06:50:20;;;;;;;16.80;3.33;;;;;;;9.78;100.00;101755.81;5073297;28;20459;-84
2022/05/03 06:52:49;;;;;;;11.73;2.35;;;;;;;10.23;100.00;101772.41;5072500;28;20052;-84
2022/05/03 06:55:19;;;;;;;18.05;4.05;;;;;;;9.92;99.65;101761.66;5072106;28;20372;-83
2022/05/03 06:57:45;;;;;;;18.73;3.60;;;;;;;9.80;100.00;101749.66;5071525;28;20184;-82
2022/05/03 07:00:13;;;;;;;14.73;3.03;;;;;;;10.58;100.00;101759.50;5071511;28;20044;-82
2022/05/03 07:02:41;;;;;;;19.20;4.22;;;;;;;10.35;95.78;101801.88;5072578;28;20508;-84
2022/05/03 07:05:08;;;;;;;12.05;2.80;;;;;;;10.40;91.67;101752.91;5072805;28;20048;-83
2022/05/03 07:07:36;;;;;;;14.65;3.15;;;;;;;11.26;88.87;101769.34;5073121;28;20410;-81
2022/05/03 07:10:03;;;;;;;19.67;3.75;;;;;;;10.88;91.65;101752.75;5059485;28;20071;-84
2022/05/03 07:12:30;;;;;;;22.65;4.22;;;;;;;10.49;89.97;101762.34;5070643;28;20054;-82
2022/05/03 07:15:01;;;;;;;11.40;3.25;;;;;;;10.75;89.98;101746.91;5071694;28;20036;-83
2022/05/03 07:22:59;;;;;;;15.75;2.78;;;;;;;10.69;87.97;101705.13;5073048;28;20099;-84
2022/05/03 07:25:28;;;;;;;9.93;2.20;;;;;;;12.13;83.42;101747.03;5070832;28;20068;-83
2022/05/03 07:27:55;;;;;;;14.13;3.25;;;;;;;12.10;81.52;101715.59;5072664;28;20056;-85
2022/05/03 07:30:22;;;;;;;13.00;2.88;;;;;;;12.30;77.98;101725.53;5072478;28;20160;-85
2022/05/03 07:32:49;;;;;;;13.15;2.80;;;;;;;12.95;78.20;101769.13;5071855;28;20052;-85
2022/05/03 07:35:17;;;;;;;19.05;3.50;;;;;;;12.03;76.64;101759.53;5068267;28;20417;-85
2022/05/03 07:37:44;;;;;;;16.85;3.75;;;;;;;11.55;78.67;101762.53;5072731;28;20124;-85
2022/05/03 07:40:11;;;;;;;16.00;3.00;;;;;;;11.65;78.46;101742.13;5070236;28;20124;-85
2022/05/03 07:42:38;;;;;;;15.77;3.33;;;;;;;11.42;80.85;101775.06;5071411;28;20074;-84
2022/05/03 07:45:05;;;;;;;14.27;2.95;;;;;;;11.72;80.18;101746.31;5071946;28;20041;-84
2022/05/03 07:47:32;;;;;;;23.60;3.20;;;;;;;11.78;78.85;101748.81;5064385;28;20052;-84
2022/05/03 07:49:59;;;;;;;12.50;3.65;;;;;;;11.01;83.74;101776.91;5086033;28;20052;-83
2022/05/03 07:52:27;;;;;;;14.63;2.92;;;;;;;11.06;84.00;101734.88;5070817;28;20139;-85
2022/05/03 07:54:55;;;;;;;20.02;4.03;;;;;;;11.04;87.05;101731.44;5070851;28;20048;-83
2022/05/03 07:57:23;;;;;;;20.02;3.33;;;;;;;11.06;85.25;101748.81;5069131;28;20482;-83
2022/05/03 07:59:54;;;;;;;21.08;4.57;;;;;;;10.63;89.28;101760.28;5071526;28;20556;-84
2022/05/03 08:02:25;;;;;;;25.70;4.28;;;;;;;10.41;90.14;101772.94;5070528;28;20053;-83
2022/05/03 08:04:54;;;;;;;14.48;2.80;;;;;;;10.84;90.81;101772.06;5069737;28;20474;-83
2022/05/03 08:07:22;;;;;;;13.60;2.90;;;;;;;11.18;90.54;101781.75;5069879;28;20040;-83
2022/05/03 08:09:49;;;;;;;16.58;3.38;;;;;;;11.09;89.00;101733.03;5070634;28;20059;-83
2022/05/03 08:12:17;;;;;;;13.68;3.17;;;;;;;11.41;85.35;101739.25;5069271;28;20382;-83
2022/05/03 08:14:44;;;;;;;14.85;3.70;;;;;;;11.76;86.39;101771.59;5070518;28;20131;-85
2022/05/03 08:17:11;;;;;;;14.27;2.97;;;;;;;11.36;87.53;101735.88;5070201;28;20048;-83
2022/05/03 08:19:38;;;;;;;10.63;2.90;;;;;;;11.69;85.15;101734.16;5068949;28;20131;-82
2022/05/03 08:22:05;;;;;;;21.00;3.92;;;;;;;11.28;88.79;101750.94;5064898;28;20055;-84
2022/05/03 08:24:32;;;;;;;16.70;3.85;;;;;;;11.57;89.56;101742.34;5057230;28;20136;-84
2022/05/03 08:27:03;;;;;;;15.60;3.97;;;;;;;10.60;89.99;101687.88;5056755;28;20044;-82
2022/05/03 08:29:31;;;;;;;17.02;3.83;;;;;;;11.08;91.39;101749.66;5053310;28;20045;-84
2022/05/03 08:32:02;;;;;;;19.15;4.85;;;;;;;11.15;89.65;101732.03;5067408;28;20095;-84
2022/05/03 08:34:29;;;;;;;15.70;2.75;;;;;;;11.81;86.75;101763.59;5072827;28;20044;-84
2022/05/03 08:42:28;;;;;;;17.30;4.80;;;;;;;10.88;92.55;101717.81;5068168;28;20084;-84
2022/05/03 08:44:56;;;;;;;13.70;3.38;;;;;;;11.17;90.54;101715.38;5069606;28;20040;-84
2022/05/03 08:47:25;;;;;;;20.02;3.97;;;;;;;11.00;89.21;101728.88;5070418;28;20545;-84
2022/05/03 08:50:06;;;;;;;16.00;3.92;;;;;;;11.40;91.91;101756.75;5071053;28;20387;-84
2022/05/03 08:52:39;;;;;;;15.57;3.60;;;;;;;11.57;92.18;101744.97;5071668;28;20074;-84
2022/05/03 08:55:06;;;;;;;14.88;3.83;;;;;;;10.94;92.31;101713.31;5070131;28;20044;-85
2022/05/03 08:57:33;;;;;;;16.25;3.63;;;;;;;10.89;94.03;101706.44;5067975;28;20068;-84
2022/05/03 09:00:04;;;;;;;13.98;3.80;;;;;;;11.35;92.56;101695.69;5056095;28;20049;-84
2022/05/03 09:02:33;;;;;;;16.15;4.43;;;;;;;11.49;92.57;101755.66;5070333;28;20053;-83
2022/05/03 09:05:02;;;;;;;16.05;3.47;;;;;;;11.39;94.39;101693.84;5072011;28;20044;-84
2022/05/03 09:07:31;;;;;;;18.67;5.35;;;;;;;11.46;94.48;101752.25;5071453;28;20082;-84
2022/05/03 09:10:14;;;;;;;54.63;6.03;;;;;;;11.37;98.30;101700.91;5069886;28;20127;-84
2022/05/03 09:12:44;;;;;;;28.30;4.47;;;;;;;11.71;98.71;101718.38;5070931;28;20052;-84
2022/05/03 09:15:14;;;;;;;22.80;4.72;;;;;;;10.68;100.00;101724.38;5071050;28;20051;-84
2022/05/03 09:17:46;;;;;;;18.30;5.80;;;;;;;11.28;100.00;101732.56;5071587;28;20132;-85
2022/05/03 09:26:16;;;;;;;18.65;3.97;;;;;;;11.27;100.00;101730.88;5049761;28;20044;-85
2022/05/03 09:28:49;;;;;;;18.05;4.05;;;;;;;10.84;100.00;101732.75;5058627;28;20509;-84
2022/05/03 09:31:31;;;;;;;21.40;4.15;;;;;;;11.59;100.00;101733.53;5069469;28;20455;-84
2022/05/03 09:34:00;;;;;;;21.67;4.00;;;;;;;12.03;100.00;101725.41;5070814;28;20071;-84
2022/05/03 09:36:27;;;;;;;26.08;4.20;;;;;;;12.22;97.28;101727.53;5070245;28;20131;-85
2022/05/03 09:39:31;;;;;;;18.15;3.85;;;;;;;11.44;100.00;101672.75;5070728;28;20048;-84
2022/05/03 09:42:17;;;;;;;17.23;3.53;;;;;;;11.95;100.00;101715.13;5069245;28;20055;-86
2022/05/03 09:44:55;;;;;;;16.45;3.78;;;;;;;11.81;100.00;101725.13;5070334;28;20376;-85
2022/05/03 09:47:25;;;;;;;22.10;4.07;;;;;;;11.09;100.00;101646.53;5069308;28;20057;-84
2022/05/03 09:49:53;;;;;;;13.82;3.97;;;;;;;11.81;100.00;101708.50;5062699;28;20091;-85
2022/05/03 09:52:54;;;;;;;20.02;5.82;;;;;;;11.99;100.00;101686.16;5069298;28;20123;-85
2022/05/03 09:55:34;;;;;;;20.73;4.05;;;;;;;12.38;99.97;101686.78;5067317;28;20040;-85
2022/05/03 09:58:03;;;;;;;21.55;4.32;;;;;;;12.51;94.54;101708.28;5059285;28;20057;-85
2022/05/03 10:00:35;;;;;;;22.33;4.88;;;;;;;12.27;98.20;101699.34;5064538;28;20052;-84
2022/05/03 10:03:06;;;;;;;16.95;4.55;;;;;;;12.62;100.00;101702.69;5067484;28;20053;-84
2022/05/03 10:05:34;;;;;;;20.90;4.30;;;;;;;12.91;95.63;101676.34;5070222;28;20132;-86
2022/05/03 10:08:03;;;;;;;14.98;3.88;;;;;;;13.18;91.77;101697.41;5061233;28;20051;-84
2022/05/03 10:10:30;;;;;;;35.95;5.68;;;;;;;12.37;92.98;101660.56;5053393;28;20052;-85
2022/05/03 10:12:59;;;;;;;19.15;4.05;;;;;;;12.44;94.40;101690.97;5068703;28;20090;-84
2022/05/03 10:21:29;;;;;;;20.92;4.80;;;;;;;13.28;90.79;101672.50;5072387;28;20044;-85
2022/05/03 10:24:12;;;;;;;38.28;4.72;;;;;;;13.62;89.24;101691.56;5073666;28;20075;-85
2022/05/03 10:27:02;;;;;;;57.87;7.07;;;;;;;13.01;89.91;101691.81;5071663;28;20059;-85
2022/05/03 10:29:35;;;;;;;27.00;5.47;;;;;;;12.38;92.76;101630.75;5073784;28;20049;-85
2022/05/03 10:32:09;;;;;;;15.32;3.38;;;;;;;13.26;90.76;101684.84;5072655;28;20465;-85
2022/05/03 10:34:48;;;;;;;34.38;5.70;;;;;;;12.14;93.21;101627.97;5072986;28;20045;-85
2022/05/03 10:37:36;;;;;;;29.63;5.65;;;;;;;12.64;98.24;101680.72;5072218;28;20049;-84
2022/05/03 10:40:10;;;;;;;17.05;4.45;;;;;;;12.88;94.26;101675.59;5061674;28;20127;-84
2022/05/03 10:42:37;;;;;;;26.65;4.65;;;;;;;12.71;96.76;101661.25;5071750;28;20130;-84
2022/05/03 10:45:11;;;;;;;16.08;4.53;;;;;;;12.70;95.54;101677.03;5067705;28;20058;-84
2022/05/03 10:47:48;;;;;;;26.02;6.15;;;;;;;13.06;95.30;101674.97;5068084;28;20532;-84
2022/05/03 10:50:15;;;;;;;33.83;5.50;;;;;;;13.33;93.81;101672.38;5069410;28;20050;-83
2022/05/03 10:53:05;;;;;;;21.38;4.85;;;;;;;13.18;94.64;101670.25;5073293;28;20170;-84
2022/05/03 10:55:38;;;;;;;27.95;5.35;;;;;;;13.21;94.07;101667.50;5072981;28;20055;-85
2022/05/03 10:58:27;;;;;;;23.93;3.57;;;;;;;13.21;94.97;101667.50;5062591;28;20057;-85
2022/05/03 11:01:21;;;;;;;17.60;4.38;;;;;;;12.86;95.64;101665.13;5064138;28;20131;-85
2022/05/03 11:03:48;;;;;;;19.17;4.03;;;;;;;12.82;97.57;101666.16;5061743;28;20044;-84
2022/05/03 11:06:18;;;;;;;26.75;5.28;;;;;;;12.65;98.28;101661.41;5059919;28;20123;-85
2022/05/03 11:09:19;;;;;;;19.27;4.22;;;;;;;13.20;96.54;101663.16;5065138;28;20041;-84
2022/05/03 11:11:52;;;;;;;17.48;4.13;;;;;;;13.27;95.12;101657.63;5061997;28;20055;-85
2022/05/03 11:14:19;;;;;;;17.40;4.95;;;;;;;13.38;89.22;101649.41;5067597;28;20047;-85
2022/05/03 11:17:08;;;;;;;17.92;3.95;;;;;;;13.80;88.87;101627.72;5061694;28;20147;-85
2022/05/03 11:19:51;;;;;;;17.40;4.70;;;;;;;13.65;89.31;101659.84;5062542;28;20049;-85
2022/05/03 11:22:25;;;;;;;17.95;3.95;;;;;;;13.83;89.46;101643.41;5064400;28;20046;-85
2022/05/03 11:25:03;;;;;;;22.02;5.07;;;;;;;14.32;84.39;101634.56;5093239;28;20044;-85
2022/05/03 11:27:31;;;;;;;23.00;4.05;;;;;;;14.04;87.39;101618.06;5060342;28;20103;-85
2022/05/03 11:30:06;;;;;;;18.58;3.78;;;;;;;14.25;85.26;101639.22;5060242;28;20075;-84
2022/05/03 11:32:41;;;;;;;18.77;4.55;;;;;;;15.00;82.68;101636.22;5095283;28;20061;-85
2022/05/03 11:35:21;;;;;;;19.10;4.15;;;;;;;14.67;81.67;101633.19;5057903;28;20053;-86
2022/05/03 11:37:52;;;;;;;23.13;4.75;;;;;;;14.44;82.98;101628.81;5060276;28;20084;-85
2022/05/03 11:40:22;;;;;;;16.45;4.00;;;;;;;14.35;83.38;101622.13;5059107;28;20048;-85
2022/05/03 11:42:49;;;;;;;18.00;3.85;;;;;;;13.45;85.50;101627.22;5092931;28;20044;-85
2022/05/03 11:45:17;;;;;;;16.55;4.30;;;;;;;13.08;91.25;101619.72;5065711;28;20493;-85
2022/05/03 11:47:51;;;;;;;19.35;4.40;;;;;;;12.87;92.98;101606.41;5061839;28;20076;-85
2022/05/03 11:55:59;;;;;;;15.30;4.13;;;;;;;13.36;88.85;101592.50;5064336;28;20041;-85
2022/05/03 11:58:28;;;;;;;16.88;3.47;;;;;;;13.99;84.75;101624.44;5057777;28;20628;-85
2022/05/03 12:00:55;;;;;;;15.82;3.70;;;;;;;13.34;87.37;101620.66;5061857;28;20072;-84
2022/05/03 12:03:22;;;;;;;14.88;3.33;;;;;;;13.92;84.77;101596.63;5067045;28;20161;-84
2022/05/03 12:05:59;;;;;;;12.55;3.10;;;;;;;13.67;83.71;101619.44;5071497;28;20051;-83
2022/05/03 12:08:29;;;;;;;17.83;3.45;;;;;;;13.55;81.54;101561.16;5066457;28;20136;-83
2022/05/03 12:10:56;;;;;;;20.55;3.90;;;;;;;12.87;83.37;101598.53;5070539;28;20088;-85
2022/05/03 12:13:23;;;;;;;13.63;3.35;;;;;;;13.61;82.51;101609.13;5071266;28;20051;-85
2022/05/03 12:16:06;;;;;;;14.35;4.05;;;;;;;13.80;82.26;101593.50;5062066;28;20403;-86